createdAt,value
2017-04-24T00:00:26.495Z,9.32
2017-04-24T00:01:25.430Z,7.58
2017-04-24T00:02:23.568Z,6.65
2017-04-24T00:03:21.708Z,8.68
2017-04-24T00:04:19.947Z,7.73
2017-04-24T00:05:18.200Z,12.10
2017-04-24T00:06:16.390Z,7.73
2017-04-24T00:07:15.820Z,12.17
2017-04-24T00:08:13.992Z,11.02
2017-04-24T00:09:12.402Z,5.95
2017-04-24T00:10:10.736Z,7.93
2017-04-24T00:11:08.852Z,8.28
2017-04-24T00:12:07.733Z,7.38
2017-04-24T00:13:06.597Z,11.45
2017-04-24T00:14:04.721Z,10.50
2017-04-24T00:15:02.884Z,7.75
2017-04-24T00:16:01.024Z,8.58
2017-04-24T00:16:59.916Z,9.80
2017-04-24T00:17:58.115Z,10.68
2017-04-24T00:18:56.275Z,11.23
2017-04-24T00:19:54.455Z,9.28
2017-04-24T00:20:52.627Z,11.08
2017-04-24T00:21:50.783Z,9.25
2017-04-24T00:22:49.236Z,8.42
2017-04-24T00:23:47.354Z,15.17
2017-04-24T00:24:46.221Z,9.75
2017-04-24T00:25:45.139Z,9.92
2017-04-24T00:26:43.268Z,8.33
2017-04-24T00:27:42.143Z,7.75
2017-04-24T00:28:41.111Z,10.05
2017-04-24T00:29:39.239Z,9.73
2017-04-24T00:30:37.433Z,8.85
2017-04-24T00:31:35.698Z,8.43
2017-04-24T00:32:34.447Z,7.13
2017-04-24T00:33:32.588Z,5.82
2017-04-24T00:34:30.664Z,7.40
2017-04-24T00:35:28.788Z,7.20
2017-04-24T00:36:26.915Z,11.15
2017-04-24T00:37:25.065Z,9.22
2017-04-24T00:38:23.220Z,7.20
2017-04-24T00:39:21.364Z,9.32
2017-04-24T00:40:19.514Z,8.35
2017-04-24T00:41:18.428Z,9.98
2017-04-24T00:42:16.503Z,6.33
2017-04-24T00:43:14.681Z,7.40
2017-04-24T00:44:12.824Z,8.65
2017-04-24T00:45:10.965Z,6.57
2017-04-24T00:46:09.124Z,7.25
2017-04-24T00:47:07.223Z,6.62
2017-04-24T00:48:05.683Z,5.28
2017-04-24T00:49:03.876Z,9.55
2017-04-24T00:50:02.109Z,6.08
2017-04-24T00:51:00.251Z,8.80
2017-04-24T00:51:58.376Z,9.43
2017-04-24T00:52:56.511Z,10.87
2017-04-24T00:53:54.638Z,6.33
2017-04-24T00:54:52.804Z,6.03
2017-04-24T00:55:50.959Z,9.67
2017-04-24T00:56:49.803Z,11.83
2017-04-24T00:57:47.966Z,5.73
2017-04-24T00:58:46.103Z,6.45
2017-04-24T00:59:44.209Z,9.18
2017-04-24T01:00:43.079Z,9.07
2017-04-24T01:01:41.191Z,9.65
2017-04-24T01:02:39.352Z,6.00
2017-04-24T01:03:37.585Z,7.13
2017-04-24T01:04:36.545Z,7.23
2017-04-24T01:05:34.684Z,7.68
2017-04-24T01:06:32.764Z,5.80
2017-04-24T01:07:31.154Z,6.38
2017-04-24T01:08:29.949Z,5.52
2017-04-24T01:09:28.128Z,6.67
2017-04-24T01:10:26.256Z,6.37
2017-04-24T01:11:25.168Z,8.48
2017-04-24T01:12:23.264Z,11.67
2017-04-24T01:13:21.403Z,8.32
2017-04-24T01:14:19.540Z,10.45
2017-04-24T01:15:18.447Z,9.17
2017-04-24T01:16:16.561Z,7.77
2017-04-24T01:17:14.690Z,11.32
2017-04-24T01:18:12.873Z,10.10
2017-04-24T01:19:11.441Z,6.43
2017-04-24T01:20:10.361Z,5.13
2017-04-24T01:21:09.347Z,9.90
2017-04-24T01:22:07.484Z,11.15
2017-04-24T01:23:06.000Z,10.08
2017-04-24T01:24:04.149Z,6.85
2017-04-24T01:25:02.329Z,6.07
2017-04-24T01:26:00.436Z,6.97
2017-04-24T01:26:58.554Z,9.55
2017-04-24T01:27:57.477Z,6.72
2017-04-24T01:28:55.857Z,8.73
2017-04-24T01:29:53.996Z,6.73
2017-04-24T01:30:52.136Z,10.27
2017-04-24T01:31:50.291Z,7.68
2017-04-24T01:32:48.404Z,6.67
2017-04-24T01:33:46.579Z,8.68
2017-04-24T01:34:44.702Z,4.95
2017-04-24T01:35:42.888Z,7.05
2017-04-24T01:36:41.142Z,5.90
2017-04-24T01:37:39.438Z,7.60
2017-04-24T01:38:38.483Z,5.98
2017-04-24T01:39:36.644Z,7.08
2017-04-24T01:40:34.818Z,5.03
2017-04-24T01:41:33.012Z,9.45
2017-04-24T01:42:31.326Z,9.52
2017-04-24T01:43:29.504Z,6.77
2017-04-24T01:44:28.017Z,12.20
2017-04-24T01:45:26.186Z,7.87
2017-04-24T01:46:24.384Z,9.73
2017-04-24T01:47:22.496Z,7.68
2017-04-24T01:48:20.633Z,5.60
2017-04-24T01:49:18.773Z,10.15
2017-04-24T01:50:17.656Z,6.30
2017-04-24T01:51:16.475Z,6.10
2017-04-24T01:52:14.619Z,8.57
2017-04-24T01:53:13.503Z,6.87
2017-04-24T01:54:11.707Z,5.63
2017-04-24T01:55:10.505Z,9.33
2017-04-24T01:56:09.375Z,5.73
2017-04-24T01:57:07.483Z,8.77
2017-04-24T01:58:05.628Z,6.87
2017-04-24T01:59:03.788Z,7.57
2017-04-24T02:00:02.757Z,5.82
2017-04-24T02:01:01.761Z,6.60
2017-04-24T02:02:00.597Z,7.65
2017-04-24T02:02:58.729Z,5.52
2017-04-24T02:03:56.851Z,10.50
2017-04-24T02:04:55.736Z,6.07
2017-04-24T02:05:53.877Z,7.12
2017-04-24T02:06:52.031Z,12.35
2017-04-24T02:07:50.188Z,7.05
2017-04-24T02:08:48.309Z,6.03
2017-04-24T02:09:46.431Z,6.97
2017-04-24T02:10:44.639Z,5.80
2017-04-24T02:11:42.836Z,7.93
2017-04-24T02:12:41.064Z,9.03
2017-04-24T02:13:39.166Z,6.38
2017-04-24T02:14:37.259Z,7.40
2017-04-24T02:15:35.359Z,4.65
2017-04-24T02:16:33.477Z,7.83
2017-04-24T02:17:31.653Z,9.93
2017-04-24T02:18:30.622Z,9.18
2017-04-24T02:19:29.531Z,10.38
2017-04-24T02:20:28.385Z,10.05
2017-04-24T02:21:26.539Z,10.28
2017-04-24T02:22:24.806Z,5.13
2017-04-24T02:23:22.912Z,7.58
2017-04-24T02:24:21.068Z,4.28
2017-04-24T02:25:20.008Z,10.17
2017-04-24T02:26:18.184Z,6.08
2017-04-24T02:27:16.337Z,6.37
2017-04-24T02:28:14.523Z,7.32
2017-04-24T02:29:12.658Z,8.18
2017-04-24T02:30:10.866Z,9.45
2017-04-24T02:31:09.035Z,11.32
2017-04-24T02:32:07.260Z,6.40
2017-04-24T02:33:05.373Z,5.48
2017-04-24T02:34:03.592Z,6.65
2017-04-24T02:35:01.760Z,5.18
2017-04-24T02:35:59.865Z,8.20
2017-04-24T02:36:58.049Z,9.57
2017-04-24T02:37:56.157Z,5.30
2017-04-24T02:38:54.399Z,6.05
2017-04-24T02:39:52.544Z,6.75
2017-04-24T02:40:50.651Z,4.65
2017-04-24T02:41:48.703Z,7.88
2017-04-24T02:42:46.805Z,6.35
2017-04-24T02:43:44.916Z,11.25
2017-04-24T02:44:43.015Z,8.90
2017-04-24T02:45:41.886Z,7.07
2017-04-24T02:46:40.729Z,7.95
2017-04-24T02:47:38.859Z,9.98
2017-04-24T02:48:37.032Z,7.45
2017-04-24T02:49:35.151Z,9.27
2017-04-24T02:50:34.056Z,8.10
2017-04-24T02:51:32.930Z,5.90
2017-04-24T02:52:31.850Z,6.15
2017-04-24T02:53:30.776Z,6.48
2017-04-24T02:54:29.603Z,6.05
2017-04-24T02:55:27.764Z,8.98
2017-04-24T02:56:25.887Z,8.67
2017-04-24T02:57:23.956Z,7.32
2017-04-24T02:58:22.106Z,6.37
2017-04-24T02:59:21.003Z,5.93
2017-04-24T03:00:19.899Z,4.90
2017-04-24T03:01:18.056Z,7.25
2017-04-24T03:02:16.205Z,9.50
2017-04-24T03:03:14.341Z,6.77
2017-04-24T03:04:12.483Z,8.75
2017-04-24T03:05:10.641Z,8.28
2017-04-24T03:06:08.744Z,8.03
2017-04-24T03:07:07.655Z,7.23
2017-04-24T03:08:05.845Z,6.10
2017-04-24T03:09:04.988Z,5.30
2017-04-24T03:10:03.856Z,5.38
2017-04-24T03:11:02.080Z,8.83
2017-04-24T03:12:00.272Z,8.00
2017-04-24T03:12:58.400Z,7.65
2017-04-24T03:13:56.551Z,5.47
2017-04-24T03:14:54.705Z,8.40
2017-04-24T03:15:53.680Z,7.67
2017-04-24T03:16:51.839Z,6.13
2017-04-24T03:17:50.668Z,8.83
2017-04-24T03:18:48.802Z,7.17
2017-04-24T03:19:46.951Z,4.60
2017-04-24T03:20:45.931Z,5.93
2017-04-24T03:21:44.756Z,7.08
2017-04-24T03:22:42.900Z,6.70
2017-04-24T03:23:41.044Z,3.92
2017-04-24T03:24:39.911Z,6.38
2017-04-24T03:25:38.021Z,10.08
2017-04-24T03:26:36.140Z,4.20
2017-04-24T03:27:34.984Z,7.88
2017-04-24T03:28:33.128Z,7.02
2017-04-24T03:29:31.248Z,5.65
2017-04-24T03:30:30.102Z,9.25
2017-04-24T03:31:28.264Z,5.13
2017-04-24T03:32:26.352Z,5.08
2017-04-24T03:33:24.488Z,8.22
2017-04-24T03:34:22.613Z,7.73
2017-04-24T03:35:20.743Z,7.38
2017-04-24T03:36:19.579Z,7.90
2017-04-24T03:37:17.632Z,7.20
2017-04-24T03:38:15.821Z,8.48
2017-04-24T03:39:13.960Z,6.42
2017-04-24T03:40:12.436Z,7.52
2017-04-24T03:41:10.573Z,10.08
2017-04-24T03:42:08.796Z,5.13
2017-04-24T03:43:07.697Z,6.02
2017-04-24T03:44:06.827Z,6.55
2017-04-24T03:45:04.922Z,6.92
2017-04-24T03:46:03.115Z,8.47
2017-04-24T03:47:01.242Z,5.82
2017-04-24T03:47:59.925Z,7.50
2017-04-24T03:48:58.060Z,11.25
2017-04-24T03:49:56.233Z,4.60
2017-04-24T03:50:54.353Z,9.55
2017-04-24T03:51:52.470Z,6.65
2017-04-24T03:52:50.584Z,8.23
2017-04-24T03:53:48.679Z,8.08
2017-04-24T03:54:46.857Z,7.93
2017-04-24T03:55:45.003Z,7.02
2017-04-24T03:56:43.157Z,6.80
2017-04-24T03:57:41.274Z,8.47
2017-04-24T03:58:40.108Z,5.92
2017-04-24T03:59:38.192Z,7.48
2017-04-24T04:00:36.391Z,6.68
2017-04-24T04:01:34.567Z,7.52
2017-04-24T04:02:32.672Z,11.23
2017-04-24T04:03:30.825Z,7.80
2017-04-24T04:04:28.990Z,7.58
2017-04-24T04:05:27.138Z,7.42
2017-04-24T04:06:25.319Z,8.77
2017-04-24T04:07:23.409Z,6.27
2017-04-24T04:08:21.564Z,8.85
2017-04-24T04:09:19.676Z,12.12
2017-04-24T04:10:17.794Z,5.20
2017-04-24T04:11:15.931Z,6.53
2017-04-24T04:12:14.101Z,7.67
2017-04-24T04:13:12.233Z,8.20
2017-04-24T04:14:10.376Z,5.73
2017-04-24T04:15:08.560Z,6.17
2017-04-24T04:16:06.688Z,7.98
2017-04-24T04:17:07.978Z,7.77
2017-04-24T04:18:06.096Z,9.87
2017-04-24T04:19:04.279Z,5.60
2017-04-24T04:20:02.421Z,9.53
2017-04-24T04:21:00.620Z,6.55
2017-04-24T04:21:58.746Z,8.82
2017-04-24T04:22:57.817Z,9.37
2017-04-24T04:23:56.419Z,10.85
2017-04-24T04:24:55.291Z,5.92
2017-04-24T04:25:54.243Z,6.30
2017-04-24T04:26:52.380Z,9.33
2017-04-24T04:27:50.485Z,9.85
2017-04-24T04:28:48.597Z,8.60
2017-04-24T04:29:46.780Z,6.97
2017-04-24T04:30:44.883Z,8.03
2017-04-24T04:31:43.744Z,10.90
2017-04-24T04:32:41.922Z,8.03
2017-04-24T04:33:40.787Z,10.00
2017-04-24T04:34:38.904Z,7.32
2017-04-24T04:35:37.124Z,8.32
2017-04-24T04:36:35.232Z,13.63
2017-04-24T04:37:33.318Z,8.70
2017-04-24T04:38:31.502Z,9.33
2017-04-24T04:39:29.596Z,6.47
2017-04-24T04:40:27.736Z,9.05
2017-04-24T04:41:25.870Z,7.90
2017-04-24T04:42:23.980Z,7.55
2017-04-24T04:43:22.068Z,7.53
2017-04-24T04:44:20.244Z,8.50
2017-04-24T04:45:18.387Z,6.77
2017-04-24T04:46:16.471Z,5.68
2017-04-24T04:47:14.607Z,10.65
2017-04-24T04:48:13.445Z,7.68
2017-04-24T04:49:11.587Z,11.37
2017-04-24T04:50:09.773Z,9.45
2017-04-24T04:51:07.904Z,8.95
2017-04-24T04:52:06.060Z,6.97
2017-04-24T04:53:04.206Z,8.68
2017-04-24T04:54:02.352Z,6.72
2017-04-24T04:55:01.223Z,5.68
2017-04-24T04:55:59.464Z,8.45
2017-04-24T04:56:57.603Z,9.07
2017-04-24T04:57:56.010Z,7.75
2017-04-24T04:58:54.180Z,8.92
2017-04-24T04:59:52.273Z,7.52
2017-04-24T05:00:51.168Z,8.15
2017-04-24T05:01:49.280Z,7.67
2017-04-24T05:02:48.203Z,7.73
2017-04-24T05:03:46.327Z,6.78
2017-04-24T05:04:44.432Z,6.35
2017-04-24T05:05:42.569Z,5.62
2017-04-24T05:06:41.503Z,7.30
2017-04-24T05:07:39.654Z,6.72
2017-04-24T05:08:37.738Z,8.98
2017-04-24T05:09:36.019Z,7.90
2017-04-24T05:10:34.215Z,8.35
2017-04-24T05:11:33.127Z,5.65
2017-04-24T05:12:31.451Z,6.75
2017-04-24T05:13:30.307Z,6.80
2017-04-24T05:14:28.462Z,8.53
2017-04-24T05:15:26.577Z,7.73
2017-04-24T05:16:25.464Z,7.53
2017-04-24T05:17:23.610Z,8.07
2017-04-24T05:18:21.714Z,7.00
2017-04-24T05:19:19.879Z,9.10
2017-04-24T05:20:18.036Z,7.75
2017-04-24T05:21:16.199Z,10.30
2017-04-24T05:22:14.404Z,8.55
2017-04-24T05:23:12.504Z,5.90
2017-04-24T05:24:11.346Z,6.12
2017-04-24T05:25:09.490Z,8.85
2017-04-24T05:26:07.628Z,6.00
2017-04-24T05:27:05.807Z,6.30
2017-04-24T05:28:03.947Z,8.05
2017-04-24T05:29:02.107Z,5.73
2017-04-24T05:30:00.245Z,6.93
2017-04-24T05:30:58.988Z,7.15
2017-04-24T05:31:57.076Z,6.40
2017-04-24T05:32:55.198Z,7.17
2017-04-24T05:33:53.355Z,6.77
2017-04-24T05:34:51.565Z,9.33
2017-04-24T05:35:49.680Z,5.37
2017-04-24T05:36:47.851Z,6.08
2017-04-24T05:37:45.999Z,5.38
2017-04-24T05:38:44.137Z,8.15
2017-04-24T05:39:42.358Z,8.97
2017-04-24T05:40:40.528Z,6.07
2017-04-24T05:41:39.420Z,6.20
2017-04-24T05:42:37.607Z,8.73
2017-04-24T05:43:35.717Z,5.73
2017-04-24T05:44:33.873Z,5.50
2017-04-24T05:45:32.070Z,7.28
2017-04-24T05:46:30.247Z,7.72
2017-04-24T05:47:28.465Z,6.92
2017-04-24T05:48:26.684Z,5.30
2017-04-24T05:49:25.608Z,9.35
2017-04-24T05:50:23.724Z,5.48
2017-04-24T05:51:23.237Z,6.58
2017-04-24T05:52:22.175Z,7.30
2017-04-24T05:53:20.367Z,5.72
2017-04-24T05:54:18.519Z,6.97
2017-04-24T05:55:16.655Z,6.02
2017-04-24T05:56:14.836Z,9.15
2017-04-24T05:57:12.998Z,7.03
2017-04-24T05:58:11.177Z,6.58
2017-04-24T05:59:09.413Z,9.28
2017-04-24T06:00:07.716Z,6.07
2017-04-24T06:01:06.657Z,7.13
2017-04-24T06:02:04.842Z,5.87
2017-04-24T06:03:03.081Z,8.12
2017-04-24T06:04:01.233Z,9.83
2017-04-24T06:04:59.374Z,4.22
2017-04-24T06:05:57.574Z,7.23
2017-04-24T06:06:55.877Z,7.17
2017-04-24T06:07:54.000Z,6.93
2017-04-24T06:08:52.165Z,3.77
2017-04-24T06:09:50.882Z,8.47
2017-04-24T06:10:49.036Z,5.00
2017-04-24T06:11:47.197Z,5.70
2017-04-24T06:12:45.386Z,6.48
2017-04-24T06:13:44.333Z,6.73
2017-04-24T06:14:42.524Z,10.07
2017-04-24T06:15:40.687Z,10.70
2017-04-24T06:16:38.845Z,6.97
2017-04-24T06:17:36.977Z,8.43
2017-04-24T06:18:35.152Z,4.50
2017-04-24T06:19:33.305Z,7.40
2017-04-24T06:20:31.546Z,5.80
2017-04-24T06:21:29.788Z,7.18
2017-04-24T06:22:27.953Z,5.47
2017-04-24T06:23:26.129Z,5.63
2017-04-24T06:24:24.961Z,4.65
2017-04-24T06:25:23.090Z,5.83
2017-04-24T06:26:22.583Z,7.82
2017-04-24T06:27:20.739Z,5.12
2017-04-24T06:28:18.906Z,5.95
2017-04-24T06:29:17.047Z,6.00
2017-04-24T06:30:15.972Z,9.17
2017-04-24T06:31:14.236Z,4.83
2017-04-24T06:32:12.428Z,7.77
2017-04-24T06:33:10.624Z,7.40
2017-04-24T06:34:08.837Z,4.37
2017-04-24T06:35:07.029Z,5.33
2017-04-24T06:36:05.216Z,6.38
2017-04-24T06:37:03.398Z,5.97
2017-04-24T06:38:02.244Z,6.90
2017-04-24T06:39:00.419Z,4.08
2017-04-24T06:39:58.563Z,4.65
2017-04-24T06:40:56.743Z,6.53
2017-04-24T06:41:55.678Z,6.58
2017-04-24T06:42:53.842Z,5.93
2017-04-24T06:43:51.989Z,5.47
2017-04-24T06:44:50.160Z,6.60
2017-04-24T06:45:48.358Z,5.10
2017-04-24T06:46:46.569Z,6.20
2017-04-24T06:47:45.465Z,6.42
2017-04-24T06:48:43.685Z,7.58
2017-04-24T06:49:41.848Z,7.02
2017-04-24T06:50:40.590Z,6.05
2017-04-24T06:51:39.573Z,7.22
2017-04-24T06:52:37.692Z,4.20
2017-04-24T06:53:36.629Z,4.50
2017-04-24T06:54:34.809Z,6.22
2017-04-24T06:55:32.975Z,7.02
2017-04-24T06:56:31.100Z,4.53
2017-04-24T06:57:29.279Z,6.88
2017-04-24T06:58:27.405Z,5.93
2017-04-24T06:59:26.372Z,5.65
2017-04-24T07:00:24.613Z,4.70
2017-04-24T07:01:22.784Z,4.23
2017-04-24T07:02:21.760Z,4.60
2017-04-24T07:03:19.925Z,5.73
2017-04-24T07:04:18.093Z,8.43
2017-04-24T07:05:16.264Z,4.48
2017-04-24T07:06:14.524Z,10.32
2017-04-24T07:07:12.699Z,6.70
2017-04-24T07:08:11.502Z,5.98
2017-04-24T07:09:09.670Z,5.80
2017-04-24T07:10:07.931Z,5.32
2017-04-24T07:11:06.156Z,5.67
2017-04-24T07:12:04.995Z,4.25
2017-04-24T07:13:03.208Z,5.25
2017-04-24T07:14:02.157Z,6.48
2017-04-24T07:15:00.354Z,4.87
2017-04-24T07:15:58.509Z,7.22
2017-04-24T07:16:56.701Z,6.12
2017-04-24T07:17:55.609Z,4.35
2017-04-24T07:18:53.799Z,4.75
2017-04-24T07:19:51.944Z,5.90
2017-04-24T07:20:50.118Z,8.83
2017-04-24T07:21:48.337Z,4.40
2017-04-24T07:22:46.581Z,6.25
2017-04-24T07:23:44.762Z,7.80
2017-04-24T07:24:42.974Z,4.63
2017-04-24T07:25:41.174Z,10.77
2017-04-24T07:26:40.101Z,5.27
2017-04-24T07:27:38.269Z,6.18
2017-04-24T07:28:36.471Z,7.18
2017-04-24T07:29:34.607Z,7.22
2017-04-24T07:30:32.871Z,4.60
2017-04-24T07:31:31.037Z,5.10
2017-04-24T07:32:29.214Z,4.87
2017-04-24T07:33:27.408Z,4.08
2017-04-24T07:34:25.583Z,4.40
2017-04-24T07:35:23.773Z,5.10
2017-04-24T07:36:21.958Z,4.65
2017-04-24T07:37:20.192Z,6.18
2017-04-24T07:38:19.412Z,5.15
2017-04-24T07:39:17.608Z,5.38
2017-04-24T07:40:15.820Z,4.63
2017-04-24T07:41:13.972Z,7.03
2017-04-24T07:42:12.952Z,6.60
2017-04-24T07:43:11.860Z,7.72
2017-04-24T07:44:10.089Z,5.67
2017-04-24T07:45:08.247Z,6.20
2017-04-24T07:46:07.163Z,5.18
2017-04-24T07:47:05.362Z,4.45
2017-04-24T07:48:03.542Z,8.67
2017-04-24T07:49:01.768Z,9.20
2017-04-24T07:49:59.908Z,6.43
2017-04-24T07:50:58.100Z,6.32
2017-04-24T07:51:56.240Z,6.50
2017-04-24T07:52:55.141Z,5.60
2017-04-24T07:53:53.300Z,6.40
2017-04-24T07:54:51.467Z,5.00
2017-04-24T07:55:49.627Z,4.40
2017-04-24T07:56:47.847Z,5.95
2017-04-24T07:57:46.005Z,7.57
2017-04-24T07:58:44.130Z,6.97
2017-04-24T07:59:42.331Z,6.20
2017-04-24T08:00:40.702Z,5.43
2017-04-24T08:01:39.656Z,6.78
2017-04-24T08:02:37.886Z,4.75
2017-04-24T08:03:36.012Z,4.93
2017-04-24T08:04:34.165Z,4.48
2017-04-24T08:05:32.340Z,6.22
2017-04-24T08:06:31.298Z,4.32
2017-04-24T08:07:29.501Z,4.32
2017-04-24T08:08:27.730Z,5.25
2017-04-24T08:09:25.941Z,6.38
2017-04-24T08:10:24.901Z,7.00
2017-04-24T08:11:23.076Z,4.73
2017-04-24T08:12:21.225Z,4.22
2017-04-24T08:13:19.475Z,6.53
2017-04-24T08:14:17.692Z,5.18
2017-04-24T08:15:15.887Z,5.03
2017-04-24T08:16:14.092Z,4.70
2017-04-24T08:17:12.272Z,4.40
2017-04-24T08:18:10.460Z,6.17
2017-04-24T08:19:09.398Z,4.33
2017-04-24T08:20:07.536Z,5.77
2017-04-24T08:21:05.700Z,10.07
2017-04-24T08:22:03.887Z,5.97
2017-04-24T08:23:02.024Z,7.92
2017-04-24T08:24:00.136Z,5.98
2017-04-24T08:24:59.089Z,6.82
2017-04-24T08:25:57.255Z,4.43
2017-04-24T08:26:55.421Z,5.32
2017-04-24T08:27:53.626Z,5.53
2017-04-24T08:28:52.617Z,5.43
2017-04-24T08:29:50.783Z,4.73
2017-04-24T08:30:48.980Z,6.37
2017-04-24T08:31:47.165Z,5.38
2017-04-24T08:32:45.356Z,4.72
2017-04-24T08:33:43.545Z,5.70
2017-04-24T08:34:41.766Z,5.67
2017-04-24T08:35:40.027Z,6.60
2017-04-24T08:36:38.130Z,6.85
2017-04-24T08:37:37.092Z,5.58
2017-04-24T08:38:36.031Z,8.98
2017-04-24T08:39:34.232Z,7.90
2017-04-24T08:40:32.459Z,8.23
2017-04-24T08:41:30.683Z,10.50
2017-04-24T08:42:28.892Z,7.12
2017-04-24T08:43:27.025Z,8.17
2017-04-24T08:44:25.160Z,8.00
2017-04-24T08:45:24.254Z,8.27
2017-04-24T08:46:23.201Z,6.12
2017-04-24T08:47:21.969Z,8.98
2017-04-24T08:48:20.170Z,7.23
2017-04-24T08:49:18.990Z,8.78
2017-04-24T08:50:17.189Z,8.95
2017-04-24T08:51:15.355Z,6.65
2017-04-24T08:52:13.612Z,7.17
2017-04-24T08:53:11.807Z,8.15
2017-04-24T08:54:10.706Z,8.03
2017-04-24T08:55:08.937Z,9.30
2017-04-24T08:56:07.090Z,7.05
2017-04-24T08:57:05.323Z,7.67
2017-04-24T08:58:03.552Z,7.42
2017-04-24T08:59:02.479Z,7.82
2017-04-24T09:00:00.685Z,7.33
2017-04-24T09:00:58.863Z,7.98
2017-04-24T09:01:57.781Z,9.20
2017-04-24T09:02:55.961Z,9.18
2017-04-24T09:03:54.116Z,8.18
2017-04-24T09:04:52.348Z,8.75
2017-04-24T09:05:50.549Z,8.05
2017-04-24T09:06:48.667Z,9.80
2017-04-24T09:07:47.656Z,8.73
2017-04-24T09:08:45.831Z,7.60
2017-04-24T09:09:43.976Z,11.03
2017-04-24T09:10:42.888Z,8.82
2017-04-24T09:11:41.088Z,8.13
2017-04-24T09:12:39.248Z,9.12
2017-04-24T09:13:37.447Z,8.92
2017-04-24T09:14:35.619Z,7.92
2017-04-24T09:15:33.772Z,9.83
2017-04-24T09:16:31.950Z,8.28
2017-04-24T09:17:30.891Z,9.00
2017-04-24T09:18:29.067Z,8.32
2017-04-24T09:19:27.185Z,9.35
2017-04-24T09:20:25.387Z,8.83
2017-04-24T09:21:24.203Z,9.20
2017-04-24T09:22:22.431Z,8.97
2017-04-24T09:23:20.631Z,10.30
2017-04-24T09:24:19.567Z,9.58
2017-04-24T09:25:17.731Z,9.73
2017-04-24T09:26:15.889Z,11.13
2017-04-24T09:27:14.127Z,9.57
2017-04-24T09:28:12.292Z,10.87
2017-04-24T09:29:10.420Z,9.57
2017-04-24T09:30:09.317Z,9.12
2017-04-24T09:31:08.371Z,10.55
2017-04-24T09:32:06.535Z,9.60
2017-04-24T09:33:04.669Z,10.65
2017-04-24T09:34:02.832Z,10.20
2017-04-24T09:35:00.995Z,10.58
2017-04-24T09:35:59.142Z,10.00
2017-04-24T09:36:57.304Z,9.95
2017-04-24T09:37:55.520Z,9.18
2017-04-24T09:38:53.670Z,10.65
2017-04-24T09:39:51.799Z,10.05
2017-04-24T09:40:50.001Z,10.15
2017-04-24T09:41:48.196Z,11.02
2017-04-24T09:42:46.422Z,10.60
2017-04-24T09:43:45.359Z,10.30
2017-04-24T09:44:43.533Z,11.02
2017-04-24T09:45:41.709Z,12.07
2017-04-24T09:46:39.983Z,9.03
2017-04-24T09:47:38.184Z,12.47
2017-04-24T09:48:36.459Z,10.87
2017-04-24T09:49:34.625Z,12.35
2017-04-24T09:50:32.874Z,11.30
2017-04-24T09:51:31.123Z,11.43
2017-04-24T09:52:29.264Z,10.70
2017-04-24T09:53:27.504Z,13.32
2017-04-24T09:54:25.663Z,11.27
2017-04-24T09:55:24.561Z,11.95
2017-04-24T09:56:23.361Z,9.77
2017-04-24T09:57:21.525Z,11.13
2017-04-24T09:58:19.765Z,11.22
2017-04-24T09:59:17.984Z,14.05
2017-04-24T10:00:16.245Z,9.75
2017-04-24T10:01:14.436Z,11.10
2017-04-24T10:02:13.240Z,11.80
2017-04-24T10:03:11.424Z,10.42
2017-04-24T10:04:09.591Z,12.02
2017-04-24T10:05:07.891Z,12.25
2017-04-24T10:06:06.095Z,11.63
2017-04-24T10:07:04.328Z,11.13
2017-04-24T10:08:02.923Z,10.80
2017-04-24T10:09:01.907Z,12.50
2017-04-24T10:10:00.882Z,10.80
2017-04-24T10:10:59.011Z,11.18
2017-04-24T10:11:57.295Z,10.28
2017-04-24T10:12:55.453Z,11.75
2017-04-24T10:13:53.604Z,11.07
2017-04-24T10:14:51.817Z,11.38
2017-04-24T10:15:50.012Z,14.95
2017-04-24T10:16:48.175Z,10.45
2017-04-24T10:17:46.348Z,10.88
2017-04-24T10:18:44.898Z,12.68
2017-04-24T10:19:43.074Z,11.77
2017-04-24T10:20:41.248Z,13.32
2017-04-24T10:21:39.377Z,15.07
2017-04-24T10:22:37.688Z,13.85
2017-04-24T10:23:35.904Z,12.05
2017-04-24T10:24:34.096Z,11.62
2017-04-24T10:25:32.237Z,11.73
2017-04-24T10:26:30.465Z,13.03
2017-04-24T10:27:28.634Z,12.65
2017-04-24T10:28:26.862Z,12.38
2017-04-24T10:29:25.041Z,14.02
2017-04-24T10:30:23.214Z,13.72
2017-04-24T10:31:21.416Z,11.07
2017-04-24T10:32:20.367Z,12.80
2017-04-24T10:33:18.594Z,12.70
2017-04-24T10:34:16.901Z,12.98
2017-04-24T10:35:15.074Z,11.93
2017-04-24T10:36:13.281Z,13.28
2017-04-24T10:37:11.496Z,11.95
2017-04-24T10:38:09.745Z,13.12
2017-04-24T10:39:07.938Z,14.00
2017-04-24T10:40:06.880Z,12.05
2017-04-24T10:41:05.047Z,11.63
2017-04-24T10:42:03.347Z,12.22
2017-04-24T10:43:01.605Z,13.42
2017-04-24T10:43:59.793Z,12.70
2017-04-24T10:44:57.979Z,11.82
2017-04-24T10:45:56.276Z,12.65
2017-04-24T10:46:54.432Z,13.30
2017-04-24T10:47:52.584Z,11.67
2017-04-24T10:48:51.502Z,12.52
2017-04-24T10:49:49.651Z,12.23
2017-04-24T10:50:47.816Z,12.65
2017-04-24T10:51:46.102Z,13.00
2017-04-24T10:52:44.319Z,13.65
2017-04-24T10:53:42.539Z,12.35
2017-04-24T10:54:40.763Z,13.18
2017-04-24T10:55:38.963Z,13.33
2017-04-24T10:56:37.965Z,13.12
2017-04-24T10:57:36.070Z,13.52
2017-04-24T10:58:34.262Z,13.48
2017-04-24T10:59:32.642Z,14.25
2017-04-24T11:00:30.824Z,13.43
2017-04-24T11:01:29.035Z,14.43
2017-04-24T11:02:27.276Z,12.83
2017-04-24T11:03:25.444Z,12.65
2017-04-24T11:04:24.956Z,13.70
2017-04-24T11:05:23.117Z,14.03
2017-04-24T11:06:21.531Z,13.05
2017-04-24T11:07:20.470Z,12.25
2017-04-24T11:08:19.524Z,12.18
2017-04-24T11:09:18.441Z,13.98
2017-04-24T11:10:16.585Z,13.45
2017-04-24T11:11:14.800Z,14.22
2017-04-24T11:12:12.996Z,13.87
2017-04-24T11:13:11.923Z,12.38
2017-04-24T11:14:10.149Z,12.70
2017-04-24T11:15:08.936Z,13.80
2017-04-24T11:16:07.263Z,13.00
2017-04-24T11:17:05.454Z,12.97
2017-04-24T11:18:04.684Z,13.53
2017-04-24T11:19:02.899Z,13.37
2017-04-24T11:20:01.084Z,13.05
2017-04-24T11:20:59.979Z,13.02
2017-04-24T11:21:58.496Z,13.02
2017-04-24T11:22:56.881Z,13.48
2017-04-24T11:23:55.727Z,14.23
2017-04-24T11:24:54.455Z,14.33
2017-04-24T11:25:52.645Z,14.57
2017-04-24T11:26:50.916Z,14.12
2017-04-24T11:27:49.113Z,13.80
2017-04-24T11:28:47.314Z,14.95
2017-04-24T11:29:45.455Z,15.03
2017-04-24T11:30:43.613Z,13.22
2017-04-24T11:31:41.740Z,14.07
2017-04-24T11:32:39.895Z,14.62
2017-04-24T11:33:38.098Z,12.70
2017-04-24T11:34:36.287Z,14.73
2017-04-24T11:35:34.491Z,15.25
2017-04-24T11:36:32.696Z,13.35
2017-04-24T11:37:30.928Z,14.27
2017-04-24T11:38:29.120Z,17.72
2017-04-24T11:39:27.360Z,13.53
2017-04-24T11:40:26.081Z,14.12
2017-04-24T11:41:24.315Z,15.32
2017-04-24T11:42:22.455Z,15.15
2017-04-24T11:43:20.626Z,15.03
2017-04-24T11:44:18.800Z,12.63
2017-04-24T11:45:16.985Z,13.35
2017-04-24T11:46:15.187Z,14.42
2017-04-24T11:47:14.113Z,14.37
2017-04-24T11:48:12.292Z,15.58
2017-04-24T11:49:11.282Z,15.75
2017-04-24T11:50:09.535Z,16.37
2017-04-24T11:51:07.726Z,14.55
2017-04-24T11:52:06.705Z,15.35
2017-04-24T11:53:04.880Z,14.62
2017-04-24T11:54:03.883Z,16.23
2017-04-24T11:55:02.078Z,16.83
2017-04-24T11:56:00.277Z,16.42
2017-04-24T11:56:58.407Z,16.03
2017-04-24T11:57:56.590Z,15.35
2017-04-24T11:58:54.866Z,17.95
2017-04-24T11:59:53.033Z,13.90
2017-04-24T12:00:51.228Z,17.37
2017-04-24T12:01:49.386Z,18.07
2017-04-24T12:02:47.570Z,16.40
2017-04-24T12:03:45.765Z,15.33
2017-04-24T12:04:43.955Z,15.20
2017-04-24T12:05:42.159Z,14.30
2017-04-24T12:06:40.485Z,13.95
2017-04-24T12:07:38.673Z,13.48
2017-04-24T12:08:37.123Z,14.35
2017-04-24T12:09:36.207Z,15.33
2017-04-24T12:10:34.356Z,14.68
2017-04-24T12:11:32.520Z,14.82
2017-04-24T12:12:30.727Z,16.07
2017-04-24T12:13:28.929Z,16.68
2017-04-24T12:14:27.145Z,17.10
2017-04-24T12:15:25.317Z,17.93
2017-04-24T12:16:24.226Z,16.07
2017-04-24T12:17:22.482Z,17.08
2017-04-24T12:18:21.421Z,16.03
2017-04-24T12:19:19.620Z,17.90
2017-04-24T12:20:17.851Z,16.67
2017-04-24T12:21:15.976Z,18.42
2017-04-24T12:22:14.239Z,16.68
2017-04-24T12:23:12.681Z,17.20
2017-04-24T12:24:11.596Z,16.97
2017-04-24T12:25:09.852Z,17.68
2017-04-24T12:26:08.077Z,17.25
2017-04-24T12:27:06.239Z,18.38
2017-04-24T12:28:05.191Z,18.62
2017-04-24T12:29:03.412Z,19.08
2017-04-24T12:30:01.573Z,18.18
2017-04-24T12:30:59.982Z,18.20
2017-04-24T12:32:02.079Z,17.03
2017-04-24T12:33:01.036Z,16.32
2017-04-24T12:33:59.285Z,18.37
2017-04-24T12:34:57.459Z,16.83
2017-04-24T12:35:55.640Z,17.80
2017-04-24T12:36:53.848Z,17.60
2017-04-24T12:37:52.220Z,18.78
2017-04-24T12:38:50.391Z,17.87
2017-04-24T12:39:48.576Z,16.75
2017-04-24T12:40:46.742Z,18.10
2017-04-24T12:41:44.945Z,18.77
2017-04-24T12:42:43.142Z,18.67
2017-04-24T12:43:42.035Z,18.22
2017-04-24T12:44:40.249Z,18.50
2017-04-24T12:45:38.504Z,18.30
2017-04-24T12:46:36.667Z,17.75
2017-04-24T12:47:35.257Z,19.25
2017-04-24T12:48:34.184Z,18.47